Time;durP1;ratioP1;P1;durP2;ratioP2;P2;SDS_P1;SDS_P2;PMS_P1;PMS_P2;Temp;Humidity;BMP_temperature;BMP_pressure;BME280_temperature;BME280_humidity;BME280_pressure;Samples;Min_cycle;Max_cycle;Signal;HPM_P1;HPM_P2
2022/11/06 00:01:21;;;;;;;;;32.00;30.00;;;;;14.59;70.27;99046.16;6214198;28;96348;-61
2022/11/06 00:04:28;;;;;;;;;28.00;27.00;;;;;14.54;70.60;99047.94;6212659;28;97289;-59
2022/11/06 00:07:31;;;;;;;;;28.40;27.40;;;;;14.46;70.59;99041.03;6215943;28;96376;-59
2022/11/06 00:10:34;;;;;;;;;34.50;30.00;;;;;14.51;70.59;99051.97;6201475;28;96979;-59
2022/11/06 00:13:38;;;;;;;;;31.40;29.40;;;;;14.44;70.48;99045.84;6231588;28;96567;-59
2022/11/06 00:16:43;;;;;;;;;30.00;28.00;;;;;14.54;70.51;99065.03;6218342;27;96258;-60
2022/11/06 00:19:48;;;;;;;;;27.00;24.50;;;;;14.55;70.57;99063.97;6226666;28;96776;-60
2022/11/06 00:22:52;;;;;;;;;32.40;28.40;;;;;14.54;70.39;99075.06;6223585;28;96708;-60
2022/11/06 00:25:55;;;;;;;;;28.40;26.00;;;;;14.43;70.95;99063.19;6219996;28;96674;-61
2022/11/06 00:28:59;;;;;;;;;27.50;24.25;;;;;14.46;70.78;99073.56;6223011;28;97241;-59
2022/11/06 00:32:03;;;;;;;;;29.80;26.80;;;;;14.44;70.94;99067.56;6236328;27;96807;-59
2022/11/06 00:35:08;;;;;;;;;31.60;28.40;;;;;14.44;70.78;99077.59;6248290;27;96178;-60
2022/11/06 00:38:12;;;;;;;;;31.00;29.00;;;;;14.44;71.03;99072.16;6265472;27;96702;-59
2022/11/06 00:41:17;;;;;;;;;28.50;27.00;;;;;14.44;70.73;99064.84;6265247;27;96975;-59
2022/11/06 00:44:20;;;;;;;;;30.00;27.40;;;;;14.42;71.16;99075.09;6265251;27;96344;-59
2022/11/06 00:47:24;;;;;;;;;28.00;24.00;;;;;14.42;70.98;99069.69;6249262;27;96420;-59
2022/11/06 00:50:29;;;;;;;;;30.20;27.60;;;;;14.44;71.13;99074.88;6265228;27;96492;-62
2022/11/06 00:53:33;;;;;;;;;29.00;27.00;;;;;14.46;71.21;99073.56;6246426;27;96856;-59
2022/11/06 00:56:37;;;;;;;;;28.20;26.00;;;;;14.52;71.22;99077.19;6263951;27;96466;-59
2022/11/06 00:59:40;;;;;;;;;28.60;26.00;;;;;14.51;70.86;99079.09;6248622;27;96343;-59
2022/11/06 01:02:44;;;;;;;;;29.60;27.00;;;;;14.50;70.96;99073.91;6239619;27;96261;-59
2022/11/06 01:05:49;;;;;;;;;28.80;26.00;;;;;14.51;70.84;99083.69;6221120;28;97293;-59
2022/11/06 01:08:53;;;;;;;;;26.00;24.00;;;;;14.44;70.84;99066.72;6239690;28;96813;-60
2022/11/06 01:11:58;;;;;;;;;28.60;27.00;;;;;14.53;70.66;99081.56;6261864;27;96368;-59
2022/11/06 01:15:15;;;;;;;;;28.60;27.00;;;;;14.48;70.16;99071.44;6229322;27;99221;-61
2022/11/06 01:18:18;;;;;;;;;30.50;28.00;;;;;14.57;70.18;99085.41;6221699;28;96275;-59
2022/11/06 01:21:27;;;;;;;;;26.00;24.80;;;;;14.52;70.08;99086.16;6237235;27;96917;-59
2022/11/06 01:24:30;;;;;;;;;28.00;25.20;;;;;14.53;70.27;99085.09;6243039;27;96451;-60
2022/11/06 01:27:34;;;;;;;;;32.00;27.00;;;;;14.51;70.14;99079.09;6245822;27;96957;-59
2022/11/06 01:30:37;;;;;;;;;24.60;24.00;;;;;14.47;69.88;99075.19;6254854;27;97655;-59
2022/11/06 01:33:41;;;;;;;;;29.00;23.00;;;;;14.51;69.82;99081.81;6246291;27;96333;-59
2022/11/06 01:36:46;;;;;;;;;24.80;22.80;;;;;14.49;69.95;99080.41;6221151;28;96714;-58
2022/11/06 01:39:50;;;;;;;;;29.75;26.00;;;;;14.52;70.02;99078.00;6204225;28;96821;-59
2022/11/06 01:42:58;;;;;;;;;26.50;25.00;;;;;14.53;70.15;99078.84;6253474;27;96449;-58
2022/11/06 01:46:01;;;;;;;;;30.80;25.80;;;;;14.53;70.10;99079.66;6242303;27;96242;-59
2022/11/06 01:49:08;;;;;;;;;29.00;26.00;;;;;14.49;70.28;99081.22;6251067;27;96320;-59
2022/11/06 01:52:15;;;;;;;;;33.50;28.00;;;;;14.43;70.33;99073.22;6257039;27;96756;-59
2022/11/06 01:55:25;;;;;;;;;33.00;28.00;;;;;14.39;70.26;99074.78;6239024;28;96319;-59
2022/11/06 01:58:32;;;;;;;;;30.00;28.00;;;;;14.42;70.42;99079.69;6238244;27;96888;-59
2022/11/06 02:01:35;;;;;;;;;27.00;24.00;;;;;14.38;70.30;99082.09;6221244;28;96966;-59
2022/11/06 02:04:43;;;;;;;;;27.80;26.00;;;;;14.43;70.43;99084.06;6238203;28;96366;-59
2022/11/06 02:07:48;;;;;;;;;29.40;25.00;;;;;14.42;70.51;99079.69;6245942;27;96556;-59
2022/11/06 02:10:53;;;;;;;;;27.00;25.40;;;;;14.41;70.30;99087.03;6238713;28;97145;-58
2022/11/06 02:14:08;;;;;;;;;29.50;23.00;;;;;14.40;70.08;99082.69;6246262;27;96672;-59
2022/11/06 02:17:20;;;;;;;;;25.25;24.50;;;;;14.44;70.04;99088.44;6230457;27;96691;-58
2022/11/06 02:20:32;;;;;;;;;28.80;26.00;;;;;14.36;70.12;99073.38;6223981;28;96603;-59
2022/11/06 02:23:56;;;;;;;;;30.00;25.00;;;;;14.44;70.11;99085.72;6245718;27;96344;-59
2022/11/06 02:27:10;;;;;;;;;26.00;24.00;;;;;14.36;70.04;99095.06;6235839;27;96344;-58
2022/11/06 02:30:16;;;;;;;;;28.80;26.40;;;;;14.23;70.45;99095.31;6263525;27;96433;-59
2022/11/06 02:33:27;;;;;;;;;29.00;27.00;;;;;14.24;70.66;99108.63;6242695;27;96442;-59
2022/11/06 02:36:36;;;;;;;;;26.50;24.25;;;;;14.24;70.49;99107.81;6244040;27;96567;-59
2022/11/06 02:39:43;;;;;;;;;27.75;25.00;;;;;14.18;70.86;99108.75;6263439;27;96897;-59
2022/11/06 02:42:53;;;;;;;;;28.40;26.00;;;;;14.10;71.18;99101.00;6244208;27;96499;-58
2022/11/06 02:46:03;;;;;;;;;26.00;25.00;;;;;14.07;71.08;99101.50;6219989;27;96797;-59
2022/11/06 02:49:09;;;;;;;;;24.80;22.40;;;;;14.01;71.49;99105.97;6243859;27;96286;-59
2022/11/06 02:52:19;;;;;;;;;28.50;25.00;;;;;13.98;71.58;99106.44;6263059;27;96542;-58
2022/11/06 02:55:29;;;;;;;;;26.00;23.00;;;;;13.97;71.42;99109.41;6254785;27;97049;-60
2022/11/06 02:58:41;;;;;;;;;22.50;22.00;;;;;13.95;71.36;99109.63;6217932;28;96656;-59
2022/11/06 03:01:55;;;;;;;;;27.00;25.40;;;;;13.98;71.32;99105.59;6254788;27;96274;-58
2022/11/06 03:05:05;;;;;;;;;23.00;21.00;;;;;13.99;71.32;99102.66;6237911;28;97994;-59
2022/11/06 03:08:16;;;;;;;;;24.00;21.80;;;;;14.03;71.08;99106.53;6261955;27;96907;-62
2022/11/06 03:11:22;;;;;;;;;26.00;24.60;;;;;14.01;70.92;99099.72;6261658;27;96316;-60
2022/11/06 03:14:34;;;;;;;;;25.50;22.75;;;;;14.03;70.79;99106.53;6242753;27;98383;-58
2022/11/06 03:17:43;;;;;;;;;24.50;21.75;;;;;14.03;70.75;99101.13;6237943;28;96172;-58
2022/11/06 03:20:57;;;;;;;;;23.00;22.00;;;;;14.01;70.61;99099.72;6219217;28;96717;-59
2022/11/06 03:24:08;;;;;;;;;24.00;23.00;;;;;13.95;70.78;99093.38;6219241;28;96849;-59
2022/11/06 03:27:18;;;;;;;;;26.60;24.00;;;;;13.83;71.03;99071.69;6211409;28;97469;-59
2022/11/06 03:30:23;;;;;;;;;24.80;22.40;;;;;13.92;70.71;99093.03;6237292;28;96289;-60
2022/11/06 03:33:32;;;;;;;;;23.00;21.00;;;;;13.91;70.68;99097.63;6210666;28;96809;-59
2022/11/06 03:36:41;;;;;;;;;23.00;22.00;;;;;13.77;71.09;99101.66;6228218;28;96095;-59
2022/11/06 03:39:49;;;;;;;;;23.00;21.60;;;;;13.81;70.83;99102.81;6209762;28;96603;-62
2022/11/06 03:42:57;;;;;;;;;25.40;22.00;;;;;13.76;70.98;99108.13;6231272;28;98330;-59
2022/11/06 03:46:06;;;;;;;;;23.00;20.20;;;;;13.77;71.18;99104.34;6219667;28;96684;-59
2022/11/06 03:49:15;;;;;;;;;23.60;21.60;;;;;13.78;70.84;99111.44;6220640;28;96796;-59
2022/11/06 03:52:27;;;;;;;;;24.00;22.60;;;;;13.82;70.72;99135.09;6212690;28;96563;-59
2022/11/06 03:55:34;;;;;;;;;26.80;23.40;;;;;13.80;70.61;99126.38;6225877;28;96441;-59
2022/11/06 03:58:42;;;;;;;;;25.00;21.20;;;;;13.81;70.43;99130.75;6213015;28;96796;-59
2022/11/06 04:01:49;;;;;;;;;23.20;20.60;;;;;13.80;70.36;99136.41;6228699;27;96784;-59
2022/11/06 04:04:58;;;;;;;;;24.00;22.00;;;;;13.81;70.26;99124.50;6234645;28;96342;-58
2022/11/06 04:14:52;;;;;;;;;24.20;23.20;;;;;13.80;70.35;99125.56;6213757;28;96582;-59
2022/11/06 04:17:57;;;;;;;;;21.20;19.20;;;;;13.81;70.13;99128.03;6215767;28;96880;-58
2022/11/06 04:21:25;;;;;;;;;22.00;21.40;;;;;13.73;70.43;99112.13;6216468;28;97013;-58
2022/11/06 04:28:19;;;;;;;;;21.40;19.80;;;;;13.80;70.48;99139.94;6238244;28;96510;-60
2022/11/06 04:31:35;;;;;;;;;25.00;23.20;;;;;13.77;70.75;99145.84;6216572;28;96836;-60
2022/11/06 04:34:47;;;;;;;;;21.75;20.75;;;;;13.80;70.58;99147.22;6227577;28;96208;-61
2022/11/06 04:38:00;;;;;;;;;23.00;20.60;;;;;13.86;70.52;99147.13;6237433;28;96305;-60
2022/11/06 04:41:13;;;;;;;;;25.40;21.00;;;;;13.88;70.63;99152.28;6215730;28;97061;-58
2022/11/06 04:44:26;;;;;;;;;27.00;24.00;;;;;13.88;70.42;99147.69;6215369;28;96830;-61
2022/11/06 04:47:31;;;;;;;;;26.60;24.00;;;;;13.89;70.12;99153.94;6232597;28;96421;-61
2022/11/06 04:50:42;;;;;;;;;23.40;22.40;;;;;13.91;70.26;99154.53;6226961;28;96281;-61
2022/11/06 04:53:47;;;;;;;;;23.40;22.00;;;;;13.93;69.80;99151.59;6227219;28;96232;-61
2022/11/06 04:56:50;;;;;;;;;22.00;20.00;;;;;13.92;69.61;99148.06;6227735;28;98538;-58
2022/11/06 04:59:55;;;;;;;;;24.00;21.00;;;;;13.95;69.66;99160.31;6229826;28;98513;-59
2022/11/06 05:02:59;;;;;;;;;25.20;23.20;;;;;13.97;69.48;99167.16;6237670;27;96490;-60
2022/11/06 05:06:04;;;;;;;;;23.50;22.00;;;;;13.99;69.19;99166.91;6225006;28;96371;-59
2022/11/06 05:09:07;;;;;;;;;26.00;21.40;;;;;13.99;69.19;99170.44;6230678;27;96785;-59
2022/11/06 05:12:11;;;;;;;;;27.50;23.25;;;;;13.95;68.94;99163.84;6218649;28;96945;-59
2022/11/06 05:15:14;;;;;;;;;22.00;21.00;;;;;13.97;68.84;99163.63;6226926;28;96751;-59
2022/11/06 05:18:17;;;;;;;;;23.50;20.50;;;;;13.96;68.92;99162.78;6222293;28;96372;-59
2022/11/06 05:24:43;;;;;;;;;25.60;22.40;;;;;13.96;68.67;99167.38;6215392;28;96739;-59
2022/11/06 05:27:46;;;;;;;;;24.50;22.00;;;;;13.98;68.62;99157.09;6217988;28;96382;-59
2022/11/06 05:30:49;;;;;;;;;25.00;21.00;;;;;13.93;68.37;99155.09;6226080;28;96942;-60
2022/11/06 05:33:53;;;;;;;;;22.00;21.00;;;;;13.92;68.64;99158.91;6241998;27;97409;-60
2022/11/06 05:36:58;;;;;;;;;24.00;21.60;;;;;13.87;68.98;99159.63;6247677;27;96365;-59
2022/11/06 05:40:01;;;;;;;;;24.50;21.75;;;;;13.84;69.54;99161.94;6245102;27;96556;-59
2022/11/06 05:43:05;;;;;;;;;21.20;20.20;;;;;13.83;69.56;99166.53;6237882;27;96990;-59
2022/11/06 05:46:09;;;;;;;;;25.00;22.00;;;;;13.84;69.47;99173.63;6238339;28;97019;-59
2022/11/06 05:49:32;;;;;;;;;25.50;22.00;;;;;13.85;69.62;99177.16;6248025;27;96922;-61
2022/11/06 05:52:37;;;;;;;;;24.00;21.00;;;;;13.88;69.54;99187.50;6259474;27;96499;-60
2022/11/06 05:55:41;;;;;;;;;24.00;22.00;;;;;13.47;69.66;99165.94;6259907;27;96268;-60
2022/11/06 05:58:44;;;;;;;;;25.60;23.60;;;;;13.58;69.92;99163.25;6250770;27;97242;-60
2022/11/06 06:01:47;;;;;;;;;26.20;23.20;;;;;13.78;69.98;99190.81;6230510;27;99049;-59
2022/11/06 06:04:50;;;;;;;;;25.20;23.00;;;;;13.77;70.18;99204.63;6221779;28;98482;-59
2022/11/06 06:07:55;;;;;;;;;25.20;23.20;;;;;13.77;70.24;99207.34;6238537;28;96289;-59
2022/11/06 06:10:59;;;;;;;;;20.20;18.40;;;;;13.77;70.09;99208.16;6237791;28;96641;-59
2022/11/06 06:14:02;;;;;;;;;24.00;21.80;;;;;13.76;70.02;99208.38;6241631;27;96545;-59
2022/11/06 06:17:06;;;;;;;;;25.60;23.40;;;;;13.78;69.79;99204.38;6248589;27;97027;-58
2022/11/06 06:20:11;;;;;;;;;26.00;23.00;;;;;13.75;69.92;99202.13;6254034;27;96343;-59
2022/11/06 06:23:15;;;;;;;;;21.40;21.00;;;;;13.85;69.74;99201.56;6246872;27;96316;-58
2022/11/06 06:26:19;;;;;;;;;25.00;22.00;;;;;13.90;69.40;99204.38;6247060;27;96329;-59
2022/11/06 06:29:22;;;;;;;;;26.00;23.80;;;;;13.88;69.18;99201.91;6247317;27;97559;-58
2022/11/06 06:32:25;;;;;;;;;25.00;24.00;;;;;13.93;69.17;99211.22;6252873;27;96445;-59
2022/11/06 06:35:29;;;;;;;;;26.80;24.60;;;;;13.96;69.04;99222.44;6237397;28;96392;-59
2022/11/06 06:38:33;;;;;;;;;22.00;20.00;;;;;13.97;68.65;99215.13;6237864;27;97300;-59
2022/11/06 06:41:37;;;;;;;;;26.40;23.40;;;;;14.00;68.72;99217.34;6254863;27;96360;-61
2022/11/06 06:44:40;;;;;;;;;26.60;22.00;;;;;13.98;69.04;99219.44;6235400;27;96262;-59
2022/11/06 06:47:44;;;;;;;;;27.50;26.00;;;;;14.03;68.89;99233.97;6258020;27;96527;-59
2022/11/06 06:50:47;;;;;;;;;25.00;23.00;;;;;13.95;68.69;99237.03;6230223;27;99006;-59
2022/11/06 06:53:52;;;;;;;;;24.60;22.20;;;;;13.98;68.95;99241.97;6248352;27;97298;-60
2022/11/06 06:56:55;;;;;;;;;23.80;22.20;;;;;13.95;68.87;99238.91;6238814;27;97967;-60
2022/11/06 06:59:58;;;;;;;;;25.25;24.00;;;;;14.04;68.72;99242.91;6237551;27;98454;-59
2022/11/06 07:03:02;;;;;;;;;24.00;22.00;;;;;14.10;68.26;99228.44;6250842;27;96270;-60
2022/11/06 07:06:06;;;;;;;;;28.00;25.60;;;;;14.14;68.09;99230.44;6253062;27;96497;-59
2022/11/06 07:09:12;;;;;;;;;26.00;24.00;;;;;14.16;67.93;99222.91;6257452;27;96388;-59
2022/11/06 07:12:15;;;;;;;;;22.20;21.00;;;;;14.18;67.88;99234.31;6252537;27;96379;-61
2022/11/06 07:15:18;;;;;;;;;24.75;21.75;;;;;14.27;67.62;99232.88;6244365;27;96878;-61
2022/11/06 07:18:23;;;;;;;;;23.80;19.60;;;;;14.40;66.89;99226.44;6231421;27;96625;-60
2022/11/06 07:21:26;;;;;;;;;26.20;22.80;;;;;14.45;66.63;99210.28;6245565;27;97375;-59
2022/11/06 07:24:31;;;;;;;;;19.25;17.25;;;;;14.41;65.50;99190.13;6247660;27;97609;-65
2022/11/06 07:27:34;;;;;;;;;21.60;18.20;;;;;14.68;64.75;99217.53;6254229;27;96587;-59
2022/11/06 07:30:38;;;;;;;;;18.50;17.00;;;;;14.69;63.51;99227.31;6245860;27;97488;-59
2022/11/06 07:33:42;;;;;;;;;24.40;22.00;;;;;14.60;64.56;99205.16;6241759;27;96626;-59
2022/11/06 07:36:45;;;;;;;;;24.00;21.60;;;;;14.71;65.22;99222.47;6237640;27;97303;-59
2022/11/06 07:39:50;;;;;;;;;21.00;20.00;;;;;14.73;64.50;99218.47;6255755;27;96396;-59
2022/11/06 07:42:53;;;;;;;;;25.00;23.00;;;;;14.73;64.88;99215.75;6256379;27;96273;-62
2022/11/06 07:45:59;;;;;;;;;24.80;20.20;;;;;14.66;64.95;99217.75;6253358;27;96274;-60
2022/11/06 07:49:03;;;;;;;;;24.00;22.25;;;;;14.72;65.12;99224.94;6250892;27;97156;-60
2022/11/06 07:52:06;;;;;;;;;24.40;21.40;;;;;14.82;64.33;99210.75;6242113;27;96321;-60
2022/11/06 07:55:11;;;;;;;;;21.50;20.00;;;;;14.95;63.96;99218.63;6240995;27;96528;-60
2022/11/06 07:58:15;;;;;;;;;23.60;21.00;;;;;15.00;63.28;99216.00;6247123;27;96257;-60
2022/11/06 08:01:19;;;;;;;;;23.75;22.00;;;;;14.90;62.82;99190.56;6248358;27;96450;-59
2022/11/06 08:04:22;;;;;;;;;22.20;20.00;;;;;14.95;62.14;99210.50;6237239;27;96770;-61
2022/11/06 08:07:26;;;;;;;;;24.00;21.00;;;;;15.04;62.34;99211.75;6246936;27;96295;-59
2022/11/06 08:10:31;;;;;;;;;20.00;18.00;;;;;15.12;61.76;99211.34;6252529;27;96678;-59
2022/11/06 08:13:35;;;;;;;;;25.00;23.40;;;;;15.18;61.60;99217.69;6227564;27;97182;-59
2022/11/06 08:16:38;;;;;;;;;21.50;20.00;;;;;15.10;60.35;99220.81;6224485;27;96854;-60
2022/11/06 08:19:41;;;;;;;;;24.33;21.33;;;;;15.22;60.89;99216.16;6249684;27;96503;-59
2022/11/06 08:22:45;;;;;;;;;23.00;20.80;;;;;15.25;60.50;99226.50;6235848;27;99293;-62
2022/11/06 08:25:49;;;;;;;;;24.67;21.33;;;;;15.21;60.20;99224.53;6241620;27;96382;-61
2022/11/06 08:28:53;;;;;;;;;20.40;17.80;;;;;15.20;59.54;99220.19;6254784;27;96829;-60
2022/11/06 08:31:56;;;;;;;;;22.80;20.00;;;;;15.13;59.73;99214.91;6253524;27;96590;-60
2022/11/06 08:34:59;;;;;;;;;21.60;19.00;;;;;15.15;60.53;99212.75;6244646;27;96332;-62
2022/11/06 08:38:03;;;;;;;;;21.60;20.60;;;;;15.22;60.05;99210.72;6264095;27;96632;-60
2022/11/06 08:41:11;;;;;;;;;23.40;19.40;;;;;15.30;59.68;99218.44;6252803;27;96117;-61
2022/11/06 08:44:15;;;;;;;;;24.00;21.00;;;;;15.39;58.66;99208.88;6240816;28;96264;-61
2022/11/06 08:47:18;;;;;;;;;21.20;19.00;;;;;15.47;59.09;99211.16;6216370;27;98684;-60
2022/11/06 08:50:21;;;;;;;;;22.60;19.60;;;;;15.52;58.71;99214.00;6241318;27;98453;-60
2022/11/06 08:53:25;;;;;;;;;19.00;18.00;;;;;15.57;58.96;99218.69;6259953;27;96313;-60
2022/11/06 08:56:29;;;;;;;;;28.00;23.40;;;;;15.63;58.85;99216.91;6233842;27;97143;-59
2022/11/06 08:59:32;;;;;;;;;23.00;19.50;;;;;15.65;59.22;99217.47;6241533;27;98596;-61
2022/11/06 09:02:36;;;;;;;;;21.00;20.00;;;;;15.71;58.89;99209.16;6239431;27;96097;-59
2022/11/06 09:05:40;;;;;;;;;24.00;22.00;;;;;15.80;59.08;99215.00;6204814;28;96693;-60
2022/11/06 09:08:44;;;;;;;;;28.25;24.75;;;;;15.84;58.47;99216.13;6222520;27;97975;-59
2022/11/06 09:11:49;;;;;;;;;27.00;23.50;;;;;15.62;58.68;99152.72;6264454;27;96758;-60
2022/11/06 09:14:52;;;;;;;;;22.20;20.00;;;;;16.01;57.29;99209.63;6249923;27;96495;-59
2022/11/06 09:17:56;;;;;;;;;21.60;21.40;;;;;15.94;56.89;99213.59;6241441;27;96331;-59
2022/11/06 09:20:59;;;;;;;;;23.00;21.60;;;;;15.89;57.02;99211.63;6248912;27;97107;-60
2022/11/06 09:24:03;;;;;;;;;23.25;22.00;;;;;15.82;56.99;99212.88;6239020;27;96584;-60
2022/11/06 09:27:08;;;;;;;;;25.75;22.50;;;;;15.84;57.07;99211.53;6253676;27;97481;-60
2022/11/06 09:30:14;;;;;;;;;23.00;20.20;;;;;15.95;57.90;99212.53;6242377;27;96793;-59
2022/11/06 09:33:18;;;;;;;;;24.50;21.00;;;;;16.02;56.84;99207.75;6237678;27;96660;-59
2022/11/06 09:36:22;;;;;;;;;24.25;22.00;;;;;16.07;56.72;99213.25;6250018;27;96964;-59
2022/11/06 09:39:25;;;;;;;;;22.80;20.00;;;;;16.21;57.46;99213.72;6222782;27;96412;-61
2022/11/06 09:42:43;;;;;;;;;25.50;23.50;;;;;16.27;57.12;99208.09;6238862;28;96338;-59
2022/11/06 09:45:49;;;;;;;;;23.80;20.40;;;;;16.33;56.91;99219.88;6220203;27;97732;-59
2022/11/06 09:49:01;;;;;;;;;24.75;21.75;;;;;16.36;57.00;99213.94;6241575;27;96337;-60
2022/11/06 09:52:12;;;;;;;;;24.50;23.50;;;;;16.34;56.78;99207.91;6238584;27;97210;-59
2022/11/06 09:55:21;;;;;;;;;23.80;20.80;;;;;16.37;56.50;99218.31;6245851;27;96312;-59
2022/11/06 09:58:31;;;;;;;;;26.00;24.40;;;;;16.29;56.62;99207.84;6232612;28;99194;-63
2022/11/06 10:01:42;;;;;;;;;23.40;21.40;;;;;16.19;56.77;99203.09;6219603;28;98688;-59
2022/11/06 10:04:51;;;;;;;;;25.00;22.00;;;;;16.25;57.01;99209.44;6238970;27;96361;-59
2022/11/06 10:07:57;;;;;;;;;23.20;20.00;;;;;16.22;56.05;99209.94;6238098;27;96886;-60
2022/11/06 10:11:04;;;;;;;;;24.75;21.25;;;;;16.24;56.05;99200.44;6239824;27;96774;-60
2022/11/06 10:14:19;;;;;;;;;22.40;22.00;;;;;16.23;56.42;99204.22;6243084;27;96362;-60
2022/11/06 10:17:38;;;;;;;;;25.00;22.00;;;;;16.22;56.63;99197.16;6219033;28;98398;-60
2022/11/06 10:20:48;;;;;;;;;23.20;21.00;;;;;16.21;57.10;99194.69;6218560;28;98429;-60
2022/11/06 10:23:56;;;;;;;;;25.00;23.00;;;;;16.21;57.28;99192.78;6244900;27;97311;-59
2022/11/06 10:27:09;;;;;;;;;23.20;21.80;;;;;16.23;56.73;99187.91;6262069;27;96303;-60
2022/11/06 10:30:17;;;;;;;;;21.25;20.00;;;;;16.26;56.94;99184.69;6245515;27;96926;-59
2022/11/06 10:33:32;;;;;;;;;19.80;18.60;;;;;16.24;56.79;99180.56;6239030;27;96314;-59
2022/11/06 10:36:42;;;;;;;;;21.50;19.50;;;;;16.27;57.43;99178.16;6236663;28;96311;-59
2022/11/06 10:39:55;;;;;;;;;26.60;24.80;;;;;16.22;57.35;99167.25;6239397;27;96488;-59
2022/11/06 10:43:08;;;;;;;;;21.33;20.00;;;;;16.23;57.64;99165.31;6257778;27;96636;-61
2022/11/06 10:46:22;;;;;;;;;22.00;20.00;;;;;16.21;56.45;99162.88;6250912;27;97160;-59
2022/11/06 10:49:35;;;;;;;;;19.00;17.20;;;;;16.13;56.02;99146.13;6249040;27;96922;-59
2022/11/06 10:52:51;;;;;;;;;18.20;16.60;;;;;16.21;56.00;99149.25;6258754;27;96305;-61
2022/11/06 10:56:20;;;;;;;;;15.60;14.20;;;;;16.28;56.53;99149.88;6245888;27;96399;-62
2022/11/06 10:59:24;;;;;;;;;18.00;15.20;;;;;16.31;56.82;99146.69;6239176;27;97243;-59
2022/11/06 11:02:33;;;;;;;;;20.20;17.00;;;;;16.24;56.11;99126.16;6246810;27;96404;-60
2022/11/06 11:05:40;;;;;;;;;21.40;19.00;;;;;16.41;55.92;99144.09;6235666;27;96918;-60
2022/11/06 11:08:45;;;;;;;;;18.80;17.00;;;;;16.36;55.89;99135.03;6244085;27;96396;-59
2022/11/06 11:11:49;;;;;;;;;19.25;19.00;;;;;16.43;56.02;99141.09;6228141;27;98460;-59
2022/11/06 11:15:12;;;;;;;;;23.00;21.00;;;;;16.48;56.16;99147.44;6239084;27;95980;-59
2022/11/06 11:18:29;;;;;;;;;21.20;19.60;;;;;16.46;55.49;99137.88;6254675;27;96692;-61
2022/11/06 11:21:33;;;;;;;;;22.20;20.60;;;;;16.44;55.69;99134.59;6251722;27;96432;-59
2022/11/06 11:24:36;;;;;;;;;20.00;18.00;;;;;16.38;55.29;99130.16;6246433;27;96469;-60
2022/11/06 11:27:44;;;;;;;;;24.50;20.00;;;;;16.40;55.91;99128.84;6249874;27;96181;-58
2022/11/06 11:30:53;;;;;;;;;26.60;25.00;;;;;16.41;56.01;99127.75;6237138;27;96830;-60
2022/11/06 11:34:02;;;;;;;;;32.00;28.60;;;;;16.45;56.15;99118.00;6252745;27;96426;-60
2022/11/06 11:37:07;;;;;;;;;27.40;26.40;;;;;16.47;56.05;99115.00;6251973;27;96342;-59
2022/11/06 11:40:22;;;;;;;;;29.00;25.00;;;;;16.53;56.14;99122.16;6249905;27;96347;-59
2022/11/06 11:43:27;;;;;;;;;30.00;25.00;;;;;16.55;56.65;99117.31;6247356;27;96939;-59
2022/11/06 11:46:32;;;;;;;;;33.00;27.20;;;;;16.56;56.32;99118.13;6251258;27;96546;-59
2022/11/06 11:49:37;;;;;;;;;32.50;27.50;;;;;16.55;55.84;99124.66;6240502;27;96426;-61
2022/11/06 11:52:40;;;;;;;;;28.60;27.60;;;;;16.54;56.84;99123.00;6230483;27;97052;-60
2022/11/06 11:55:48;;;;;;;;;29.50;25.75;;;;;16.59;56.47;99118.47;6249753;27;96622;-60
2022/11/06 11:58:54;;;;;;;;;29.00;27.00;;;;;16.68;56.43;99113.38;6249220;27;96561;-60
2022/11/06 12:02:03;;;;;;;;;27.40;24.00;;;;;16.71;55.86;99115.63;6233177;27;96827;-60
2022/11/06 12:05:14;;;;;;;;;23.60;22.60;;;;;16.58;54.99;99105.94;6235706;27;99534;-60
2022/11/06 12:08:24;;;;;;;;;21.80;20.80;;;;;16.54;55.08;99104.78;6256366;27;96256;-60
2022/11/06 12:11:30;;;;;;;;;23.00;22.40;;;;;16.43;55.51;99106.53;6244685;27;96322;-60
2022/11/06 12:14:35;;;;;;;;;26.00;22.00;;;;;16.51;55.46;99112.63;6246147;27;96629;-60
2022/11/06 12:17:40;;;;;;;;;23.00;21.00;;;;;16.34;55.08;99090.91;6247454;27;97058;-60
2022/11/06 12:20:52;;;;;;;;;25.25;22.25;;;;;16.29;55.17;99093.56;6252847;27;96441;-60
2022/11/06 12:24:00;;;;;;;;;26.40;23.40;;;;;16.41;55.40;99103.28;6252241;27;96633;-60
2022/11/06 12:27:09;;;;;;;;;19.00;19.00;;;;;16.30;55.27;99085.16;6251198;27;96632;-60
2022/11/06 12:30:16;;;;;;;;;20.75;17.25;;;;;16.31;54.95;99105.88;6251490;27;96686;-61
2022/11/06 12:33:21;;;;;;;;;24.00;22.00;;;;;16.33;55.38;99103.69;6250629;27;96485;-62
2022/11/06 12:37:01;;;;;;;;;11.60;10.00;;;;;16.14;55.87;99099.66;6253656;27;96322;-59
2022/11/06 12:40:16;;;;;;;;;19.20;17.60;;;;;16.22;56.15;99101.13;6240082;27;96509;-61
2022/11/06 12:43:36;;;;;;;;;22.60;21.40;;;;;15.97;55.73;99101.63;6254570;27;96431;-59
2022/11/06 12:46:48;;;;;;;;;21.50;19.00;;;;;15.89;56.06;99102.03;6218012;28;96723;-60
2022/11/06 12:50:22;;;;;;;;;18.00;17.00;;;;;15.68;56.16;99100.09;6255473;27;96652;-60
2022/11/06 12:53:36;;;;;;;;;20.80;20.00;;;;;15.47;56.61;99096.22;6261197;27;96377;-59
2022/11/06 12:56:49;;;;;;;;;19.40;17.40;;;;;15.33;57.41;99100.34;6250941;27;97016;-60
2022/11/06 13:00:08;;;;;;;;;15.75;15.00;;;;;14.98;58.75;99103.28;6245978;27;96263;-59
2022/11/06 13:03:33;;;;;;;;;18.00;17.00;;;;;14.73;58.56;99111.78;6247839;27;96450;-63
2022/11/06 13:07:02;;;;;;;;;17.60;16.60;;;;;14.68;59.09;99106.25;6240175;27;97247;-59
2022/11/06 13:10:22;;;;;;;;;13.60;12.60;;;;;14.74;58.84;99102.59;6252175;27;96366;-60
2022/11/06 13:13:44;;;;;;;;;17.00;15.00;;;;;14.63;59.48;99100.75;6239493;27;96661;-59
2022/11/06 13:16:59;;;;;;;;;14.80;14.80;;;;;14.58;59.50;99104.19;6221874;27;98954;-58
2022/11/06 13:20:09;;;;;;;;;18.40;16.00;;;;;14.71;59.66;99111.19;6226756;27;96672;-59
2022/11/06 13:23:19;;;;;;;;;14.00;14.00;;;;;14.59;59.09;99116.69;6214194;27;97312;-60
2022/11/06 13:26:33;;;;;;;;;16.60;15.80;;;;;14.51;59.47;99094.56;6254334;27;97024;-58
2022/11/06 13:29:37;;;;;;;;;16.00;15.00;;;;;14.61;59.36;99111.03;6255612;27;96609;-59
2022/11/06 13:32:44;;;;;;;;;13.00;12.00;;;;;14.50;58.72;99111.88;6256039;27;96171;-59
2022/11/06 13:35:54;;;;;;;;;14.75;11.75;;;;;14.47;58.56;99113.19;6251269;27;97225;-63
2022/11/06 13:39:05;;;;;;;;;14.80;14.20;;;;;14.44;58.33;99100.09;6255946;27;96552;-62
2022/11/06 13:42:23;;;;;;;;;15.00;14.00;;;;;14.32;58.16;99088.44;6255243;27;96930;-61
2022/11/06 13:45:28;;;;;;;;;14.75;13.75;;;;;14.61;58.72;99111.03;6264492;27;96445;-61
2022/11/06 13:48:40;;;;;;;;;17.00;14.00;;;;;14.75;58.67;99117.81;6253159;27;96422;-60
2022/11/06 13:51:52;;;;;;;;;19.80;17.80;;;;;14.84;57.88;99113.63;6251711;27;96362;-60
2022/11/06 13:55:09;;;;;;;;;14.00;13.00;;;;;14.82;57.20;99107.59;6250582;27;97041;-60
2022/11/06 13:58:28;;;;;;;;;14.75;14.00;;;;;14.83;57.17;99106.53;6259910;27;96647;-61
2022/11/06 14:01:48;;;;;;;;;15.60;14.00;;;;;14.88;57.29;99103.09;6239605;27;96619;-61
2022/11/06 14:05:18;;;;;;;;;12.00;11.60;;;;;14.94;57.35;99099.41;6245577;27;96267;-59
2022/11/06 14:08:27;;;;;;;;;16.00;15.00;;;;;14.97;57.19;99098.91;6249989;27;96584;-59
2022/11/06 14:11:34;;;;;;;;;13.40;12.40;;;;;14.98;56.29;99100.56;6259527;27;96336;-59
2022/11/06 14:14:39;;;;;;;;;14.00;13.00;;;;;15.00;56.89;99088.38;6255175;27;96376;-60
2022/11/06 14:17:53;;;;;;;;;11.00;10.20;;;;;15.04;56.62;99088.75;6236179;27;96707;-59
2022/11/06 14:21:41;;;;;;;;;12.00;11.00;;;;;15.03;55.91;99078.94;6234534;27;96509;-60
2022/11/06 14:24:44;;;;;;;;;10.50;9.50;;;;;15.15;56.00;99077.78;6163354;28;96328;-60
2022/11/06 14:28:06;;;;;;;;;12.00;10.00;;;;;15.23;55.28;99081.16;6183280;28;96578;-59
2022/11/06 14:31:31;;;;;;;;;11.00;10.00;;;;;15.30;54.97;99073.66;6166894;28;97034;-60
2022/11/06 14:34:37;;;;;;;;;10.40;9.40;;;;;15.35;54.16;99074.56;6166132;28;96810;-59
2022/11/06 14:37:48;;;;;;;;;10.60;9.00;;;;;15.30;53.77;99071.78;6153074;28;96559;-59